sensor_id;sensor_type;location;lat;lon;timestamp;temperature;humidity
69895;DHT22;57172;52.034;5.090;2024-03-06T00:00:13;6.30;83.50
69895;DHT22;57172;52.034;5.090;2024-03-06T00:02:40;6.30;83.70
69895;DHT22;57172;52.034;5.090;2024-03-06T00:05:07;6.30;83.70
69895;DHT22;57172;52.034;5.090;2024-03-06T00:07:35;6.30;83.80
69895;DHT22;57172;52.034;5.090;2024-03-06T00:10:02;6.20;83.90
69895;DHT22;57172;52.034;5.090;2024-03-06T00:12:31;6.20;84.00
69895;DHT22;57172;52.034;5.090;2024-03-06T00:14:58;6.20;84.10
69895;DHT22;57172;52.034;5.090;2024-03-06T00:17:25;6.20;84.20
69895;DHT22;57172;52.034;5.090;2024-03-06T00:19:52;6.20;84.40
69895;DHT22;57172;52.034;5.090;2024-03-06T00:22:19;6.20;84.40
69895;DHT22;57172;52.034;5.090;2024-03-06T00:24:50;6.30;84.40
69895;DHT22;57172;52.034;5.090;2024-03-06T00:27:17;6.30;84.40
69895;DHT22;57172;52.034;5.090;2024-03-06T00:29:44;6.30;84.50
69895;DHT22;57172;52.034;5.090;2024-03-06T00:32:11;6.30;84.80
69895;DHT22;57172;52.034;5.090;2024-03-06T00:34:38;6.30;85.00
69895;DHT22;57172;52.034;5.090;2024-03-06T00:37:05;6.30;85.20
69895;DHT22;57172;52.034;5.090;2024-03-06T00:39:32;6.40;85.40
69895;DHT22;57172;52.034;5.090;2024-03-06T00:41:58;6.40;85.50
69895;DHT22;57172;52.034;5.090;2024-03-06T00:44:25;6.50;85.70
69895;DHT22;57172;52.034;5.090;2024-03-06T00:46:52;6.50;85.70
69895;DHT22;57172;52.034;5.090;2024-03-06T00:49:19;6.50;85.80
69895;DHT22;57172;52.034;5.090;2024-03-06T00:51:46;6.60;85.80
69895;DHT22;57172;52.034;5.090;2024-03-06T00:54:16;6.60;85.90
69895;DHT22;57172;52.034;5.090;2024-03-06T00:56:43;6.60;85.80
69895;DHT22;57172;52.034;5.090;2024-03-06T00:59:10;6.70;85.80
69895;DHT22;57172;52.034;5.090;2024-03-06T01:01:37;6.70;85.80
69895;DHT22;57172;52.034;5.090;2024-03-06T01:04:04;6.70;85.80
69895;DHT22;57172;52.034;5.090;2024-03-06T01:06:31;6.70;85.90
69895;DHT22;57172;52.034;5.090;2024-03-06T01:08:58;6.70;86.00
69895;DHT22;57172;52.034;5.090;2024-03-06T01:11:25;6.70;86.10
69895;DHT22;57172;52.034;5.090;2024-03-06T01:13:55;6.80;86.10
69895;DHT22;57172;52.034;5.090;2024-03-06T01:16:22;6.80;86.10
69895;DHT22;57172;52.034;5.090;2024-03-06T01:18:49;6.80;86.20
69895;DHT22;57172;52.034;5.090;2024-03-06T01:21:16;6.80;86.20
69895;DHT22;57172;52.034;5.090;2024-03-06T01:23:43;6.90;86.30
69895;DHT22;57172;52.034;5.090;2024-03-06T01:26:10;6.90;86.30
69895;DHT22;57172;52.034;5.090;2024-03-06T01:28:38;6.90;86.40
69895;DHT22;57172;52.034;5.090;2024-03-06T01:31:05;6.90;86.50
69895;DHT22;57172;52.034;5.090;2024-03-06T01:33:33;7.00;86.50
69895;DHT22;57172;52.034;5.090;2024-03-06T01:36:00;7.00;86.50
69895;DHT22;57172;52.034;5.090;2024-03-06T01:38:27;7.00;86.50
69895;DHT22;57172;52.034;5.090;2024-03-06T01:40:54;7.10;86.50
69895;DHT22;57172;52.034;5.090;2024-03-06T01:43:23;7.10;86.50
69895;DHT22;57172;52.034;5.090;2024-03-06T01:45:50;7.10;86.50
69895;DHT22;57172;52.034;5.090;2024-03-06T01:48:19;7.10;86.50
69895;DHT22;57172;52.034;5.090;2024-03-06T01:50:47;7.10;86.50
69895;DHT22;57172;52.034;5.090;2024-03-06T01:53:15;7.10;86.60
69895;DHT22;57172;52.034;5.090;2024-03-06T01:55:43;7.10;86.70
69895;DHT22;57172;52.034;5.090;2024-03-06T01:58:10;7.20;86.70
69895;DHT22;57172;52.034;5.090;2024-03-06T02:00:37;7.20;86.70
69895;DHT22;57172;52.034;5.090;2024-03-06T02:03:04;7.20;86.70
69895;DHT22;57172;52.034;5.090;2024-03-06T02:05:32;7.20;86.80
69895;DHT22;57172;52.034;5.090;2024-03-06T02:07:59;7.20;86.80
69895;DHT22;57172;52.034;5.090;2024-03-06T02:10:30;7.30;86.70
69895;DHT22;57172;52.034;5.090;2024-03-06T02:12:57;7.20;86.70
69895;DHT22;57172;52.034;5.090;2024-03-06T02:15:24;7.20;86.60
69895;DHT22;57172;52.034;5.090;2024-03-06T02:17:51;7.20;86.50
69895;DHT22;57172;52.034;5.090;2024-03-06T02:20:24;7.20;86.60
69895;DHT22;57172;52.034;5.090;2024-03-06T02:22:51;7.20;86.70
69895;DHT22;57172;52.034;5.090;2024-03-06T02:25:18;7.20;86.60
69895;DHT22;57172;52.034;5.090;2024-03-06T02:27:46;7.10;86.60
69895;DHT22;57172;52.034;5.090;2024-03-06T02:30:19;7.10;86.50
69895;DHT22;57172;52.034;5.090;2024-03-06T02:32:47;7.10;86.60
69895;DHT22;57172;52.034;5.090;2024-03-06T02:35:14;7.00;86.60
69895;DHT22;57172;52.034;5.090;2024-03-06T02:37:43;7.00;86.70
69895;DHT22;57172;52.034;5.090;2024-03-06T02:40:11;7.00;86.90
69895;DHT22;57172;52.034;5.090;2024-03-06T02:42:38;7.00;87.10
69895;DHT22;57172;52.034;5.090;2024-03-06T02:45:08;7.00;87.40
69895;DHT22;57172;52.034;5.090;2024-03-06T02:47:35;7.00;87.60
69895;DHT22;57172;52.034;5.090;2024-03-06T02:50:03;7.10;87.70
69895;DHT22;57172;52.034;5.090;2024-03-06T02:52:30;7.10;87.80
69895;DHT22;57172;52.034;5.090;2024-03-06T02:54:57;7.10;87.80
69895;DHT22;57172;52.034;5.090;2024-03-06T02:57:27;7.10;87.80
69895;DHT22;57172;52.034;5.090;2024-03-06T02:59:58;7.10;87.70
69895;DHT22;57172;52.034;5.090;2024-03-06T03:02:25;7.10;87.50
69895;DHT22;57172;52.034;5.090;2024-03-06T03:04:52;7.00;87.30
69895;DHT22;57172;52.034;5.090;2024-03-06T03:07:19;7.00;87.20
69895;DHT22;57172;52.034;5.090;2024-03-06T03:09:47;7.00;87.10
69895;DHT22;57172;52.034;5.090;2024-03-06T03:12:14;7.00;86.80
69895;DHT22;57172;52.034;5.090;2024-03-06T03:14:41;6.90;86.70
69895;DHT22;57172;52.034;5.090;2024-03-06T03:17:08;6.90;86.50
69895;DHT22;57172;52.034;5.090;2024-03-06T03:19:37;6.80;86.30
69895;DHT22;57172;52.034;5.090;2024-03-06T03:22:07;6.80;86.30
69895;DHT22;57172;52.034;5.090;2024-03-06T03:24:36;6.70;86.20
69895;DHT22;57172;52.034;5.090;2024-03-06T03:27:03;6.60;86.20
69895;DHT22;57172;52.034;5.090;2024-03-06T03:29:30;6.60;86.40
69895;DHT22;57172;52.034;5.090;2024-03-06T03:31:57;6.50;86.40
69895;DHT22;57172;52.034;5.090;2024-03-06T03:34:24;6.40;86.50
69895;DHT22;57172;52.034;5.090;2024-03-06T03:36:51;6.40;86.50
69895;DHT22;57172;52.034;5.090;2024-03-06T03:39:18;6.40;86.60
69895;DHT22;57172;52.034;5.090;2024-03-06T03:41:48;6.40;86.70
69895;DHT22;57172;52.034;5.090;2024-03-06T03:44:16;6.40;86.80
69895;DHT22;57172;52.034;5.090;2024-03-06T03:46:44;6.30;87.00
69895;DHT22;57172;52.034;5.090;2024-03-06T03:49:12;6.30;87.10
69895;DHT22;57172;52.034;5.090;2024-03-06T03:51:39;6.30;87.30
69895;DHT22;57172;52.034;5.090;2024-03-06T03:54:06;6.30;87.40
69895;DHT22;57172;52.034;5.090;2024-03-06T03:56:33;6.40;87.60
69895;DHT22;57172;52.034;5.090;2024-03-06T03:59:00;6.40;87.70
69895;DHT22;57172;52.034;5.090;2024-03-06T04:01:28;6.40;87.90
69895;DHT22;57172;52.034;5.090;2024-03-06T04:03:55;6.50;87.90
69895;DHT22;57172;52.034;5.090;2024-03-06T04:06:21;6.50;88.00
69895;DHT22;57172;52.034;5.090;2024-03-06T04:08:48;6.50;88.00
69895;DHT22;57172;52.034;5.090;2024-03-06T04:11:15;6.50;88.00
69895;DHT22;57172;52.034;5.090;2024-03-06T04:13:43;6.50;88.10
69895;DHT22;57172;52.034;5.090;2024-03-06T04:16:10;6.50;88.10
69895;DHT22;57172;52.034;5.090;2024-03-06T04:18:41;6.60;88.20
69895;DHT22;57172;52.034;5.090;2024-03-06T04:21:08;6.60;88.20
69895;DHT22;57172;52.034;5.090;2024-03-06T04:23:37;6.60;88.10
69895;DHT22;57172;52.034;5.090;2024-03-06T04:26:04;6.60;88.00
69895;DHT22;57172;52.034;5.090;2024-03-06T04:28:30;6.60;88.00
69895;DHT22;57172;52.034;5.090;2024-03-06T04:30:58;6.60;87.90
69895;DHT22;57172;52.034;5.090;2024-03-06T04:33:25;6.60;88.10
69895;DHT22;57172;52.034;5.090;2024-03-06T04:35:52;6.60;88.30
69895;DHT22;57172;52.034;5.090;2024-03-06T04:38:19;6.60;88.40
69895;DHT22;57172;52.034;5.090;2024-03-06T04:40:46;6.60;88.60
69895;DHT22;57172;52.034;5.090;2024-03-06T04:43:13;6.60;88.70
69895;DHT22;57172;52.034;5.090;2024-03-06T04:45:39;6.70;88.80
69895;DHT22;57172;52.034;5.090;2024-03-06T04:48:07;6.70;88.90
69895;DHT22;57172;52.034;5.090;2024-03-06T04:50:34;6.70;89.00
69895;DHT22;57172;52.034;5.090;2024-03-06T04:53:01;6.70;89.00
69895;DHT22;57172;52.034;5.090;2024-03-06T04:55:28;6.70;89.00
69895;DHT22;57172;52.034;5.090;2024-03-06T04:57:57;6.80;88.80
69895;DHT22;57172;52.034;5.090;2024-03-06T05:00:23;6.70;88.80
69895;DHT22;57172;52.034;5.090;2024-03-06T05:02:51;6.70;88.60
69895;DHT22;57172;52.034;5.090;2024-03-06T05:05:35;6.70;88.40
69895;DHT22;57172;52.034;5.090;2024-03-06T05:08:20;6.60;88.10
69895;DHT22;57172;52.034;5.090;2024-03-06T05:11:04;6.60;87.90
69895;DHT22;57172;52.034;5.090;2024-03-06T05:13:49;6.50;87.70
69895;DHT22;57172;52.034;5.090;2024-03-06T05:16:33;6.40;87.80
69895;DHT22;57172;52.034;5.090;2024-03-06T05:19:18;6.30;88.10
69895;DHT22;57172;52.034;5.090;2024-03-06T05:22:04;6.30;88.30
69895;DHT22;57172;52.034;5.090;2024-03-06T05:24:49;6.20;88.50
69895;DHT22;57172;52.034;5.090;2024-03-06T05:27:33;6.20;88.80
69895;DHT22;57172;52.034;5.090;2024-03-06T05:30:18;6.20;88.90
69895;DHT22;57172;52.034;5.090;2024-03-06T05:33:02;6.10;89.00
69895;DHT22;57172;52.034;5.090;2024-03-06T05:35:47;6.10;89.10
69895;DHT22;57172;52.034;5.090;2024-03-06T05:38:31;6.10;89.20
69895;DHT22;57172;52.034;5.090;2024-03-06T05:41:15;6.20;89.20
69895;DHT22;57172;52.034;5.090;2024-03-06T05:44:02;6.20;89.20
69895;DHT22;57172;52.034;5.090;2024-03-06T05:46:48;6.20;89.20
69895;DHT22;57172;52.034;5.090;2024-03-06T05:49:32;6.20;89.20
69895;DHT22;57172;52.034;5.090;2024-03-06T05:52:17;6.20;89.30
69895;DHT22;57172;52.034;5.090;2024-03-06T05:55:01;6.10;89.30
69895;DHT22;57172;52.034;5.090;2024-03-06T05:57:45;6.10;89.30
69895;DHT22;57172;52.034;5.090;2024-03-06T06:00:29;6.10;89.30
69895;DHT22;57172;52.034;5.090;2024-03-06T06:02:56;6.00;89.50
69895;DHT22;57172;52.034;5.090;2024-03-06T06:05:23;6.00;89.50
69895;DHT22;57172;52.034;5.090;2024-03-06T06:07:51;6.00;89.60
69895;DHT22;57172;52.034;5.090;2024-03-06T06:10:18;6.00;89.70
69895;DHT22;57172;52.034;5.090;2024-03-06T06:12:48;5.90;89.70
69895;DHT22;57172;52.034;5.090;2024-03-06T06:15:16;5.90;89.90
69895;DHT22;57172;52.034;5.090;2024-03-06T06:17:43;5.90;89.90
69895;DHT22;57172;52.034;5.090;2024-03-06T06:20:12;5.90;89.90
69895;DHT22;57172;52.034;5.090;2024-03-06T06:22:43;5.90;90.00
69895;DHT22;57172;52.034;5.090;2024-03-06T06:25:11;6.00;89.90
69895;DHT22;57172;52.034;5.090;2024-03-06T06:27:38;6.00;90.00
69895;DHT22;57172;52.034;5.090;2024-03-06T06:30:06;6.00;90.00
69895;DHT22;57172;52.034;5.090;2024-03-06T06:32:38;6.00;90.00
69895;DHT22;57172;52.034;5.090;2024-03-06T06:35:07;5.90;90.00
69895;DHT22;57172;52.034;5.090;2024-03-06T06:37:36;5.90;90.10
69895;DHT22;57172;52.034;5.090;2024-03-06T06:40:04;5.90;90.40
69895;DHT22;57172;52.034;5.090;2024-03-06T06:42:36;5.90;90.50
69895;DHT22;57172;52.034;5.090;2024-03-06T06:45:04;6.00;90.60
69895;DHT22;57172;52.034;5.090;2024-03-06T06:47:33;6.00;90.60
69895;DHT22;57172;52.034;5.090;2024-03-06T06:50:01;6.10;90.50
69895;DHT22;57172;52.034;5.090;2024-03-06T06:52:32;6.10;90.30
69895;DHT22;57172;52.034;5.090;2024-03-06T06:55:00;6.10;90.30
69895;DHT22;57172;52.034;5.090;2024-03-06T06:57:27;6.10;90.40
69895;DHT22;57172;52.034;5.090;2024-03-06T06:59:54;6.10;90.40
69895;DHT22;57172;52.034;5.090;2024-03-06T07:02:21;6.10;90.40
69895;DHT22;57172;52.034;5.090;2024-03-06T07:04:48;6.10;90.40
69895;DHT22;57172;52.034;5.090;2024-03-06T07:07:15;6.10;90.30
69895;DHT22;57172;52.034;5.090;2024-03-06T07:09:43;6.20;90.20
69895;DHT22;57172;52.034;5.090;2024-03-06T07:12:10;6.20;90.00
69895;DHT22;57172;52.034;5.090;2024-03-06T07:14:37;6.20;89.90
69895;DHT22;57172;52.034;5.090;2024-03-06T07:17:04;6.10;89.80
69895;DHT22;57172;52.034;5.090;2024-03-06T07:19:31;6.10;89.80
69895;DHT22;57172;52.034;5.090;2024-03-06T07:21:58;6.10;89.90
69895;DHT22;57172;52.034;5.090;2024-03-06T07:24:25;6.10;90.20
69895;DHT22;57172;52.034;5.090;2024-03-06T07:26:52;6.10;90.40
69895;DHT22;57172;52.034;5.090;2024-03-06T07:29:19;6.20;90.70
69895;DHT22;57172;52.034;5.090;2024-03-06T07:31:46;6.30;90.70
69895;DHT22;57172;52.034;5.090;2024-03-06T07:34:14;6.30;90.70
69895;DHT22;57172;52.034;5.090;2024-03-06T07:36:41;6.40;90.60
69895;DHT22;57172;52.034;5.090;2024-03-06T07:39:08;6.40;91.00
69895;DHT22;57172;52.034;5.090;2024-03-06T07:41:35;6.50;91.70
69895;DHT22;57172;52.034;5.090;2024-03-06T07:44:02;6.70;92.20
69895;DHT22;57172;52.034;5.090;2024-03-06T07:46:29;6.80;92.00
69895;DHT22;57172;52.034;5.090;2024-03-06T07:48:57;7.00;92.20
69895;DHT22;57172;52.034;5.090;2024-03-06T07:51:23;7.10;92.00
69895;DHT22;57172;52.034;5.090;2024-03-06T07:53:50;7.20;92.40
69895;DHT22;57172;52.034;5.090;2024-03-06T07:56:17;7.40;92.80
69895;DHT22;57172;52.034;5.090;2024-03-06T07:58:45;7.60;92.70
69895;DHT22;57172;52.034;5.090;2024-03-06T08:01:12;7.80;92.40
69895;DHT22;57172;52.034;5.090;2024-03-06T08:03:39;7.90;91.50
69895;DHT22;57172;52.034;5.090;2024-03-06T08:06:08;7.90;90.80
69895;DHT22;57172;52.034;5.090;2024-03-06T08:08:36;7.90;90.70
69895;DHT22;57172;52.034;5.090;2024-03-06T08:11:03;7.90;90.00
69895;DHT22;57172;52.034;5.090;2024-03-06T08:13:30;7.90;89.90
69895;DHT22;57172;52.034;5.090;2024-03-06T08:15:57;7.90;89.40
69895;DHT22;57172;52.034;5.090;2024-03-06T08:18:24;7.90;89.30
69895;DHT22;57172;52.034;5.090;2024-03-06T08:20:51;7.80;89.00
69895;DHT22;57172;52.034;5.090;2024-03-06T08:23:20;7.80;88.90
69895;DHT22;57172;52.034;5.090;2024-03-06T08:25:47;7.80;89.20
69895;DHT22;57172;52.034;5.090;2024-03-06T08:28:13;7.80;89.50
69895;DHT22;57172;52.034;5.090;2024-03-06T08:30:40;7.80;89.70
69895;DHT22;57172;52.034;5.090;2024-03-06T08:33:07;7.80;89.80
69895;DHT22;57172;52.034;5.090;2024-03-06T08:35:35;7.90;89.60
69895;DHT22;57172;52.034;5.090;2024-03-06T08:38:02;8.00;89.80
69895;DHT22;57172;52.034;5.090;2024-03-06T08:40:29;8.00;89.90
69895;DHT22;57172;52.034;5.090;2024-03-06T08:42:56;8.10;90.10
69895;DHT22;57172;52.034;5.090;2024-03-06T08:45:23;8.10;90.00
69895;DHT22;57172;52.034;5.090;2024-03-06T08:47:50;8.20;90.00
69895;DHT22;57172;52.034;5.090;2024-03-06T08:50:17;8.30;90.10
69895;DHT22;57172;52.034;5.090;2024-03-06T08:52:45;8.40;89.90
69895;DHT22;57172;52.034;5.090;2024-03-06T08:55:12;8.50;89.80
69895;DHT22;57172;52.034;5.090;2024-03-06T08:57:40;8.60;89.70
69895;DHT22;57172;52.034;5.090;2024-03-06T09:00:08;8.70;89.50
69895;DHT22;57172;52.034;5.090;2024-03-06T09:02:38;8.70;89.50
69895;DHT22;57172;52.034;5.090;2024-03-06T09:05:06;8.80;89.00
69895;DHT22;57172;52.034;5.090;2024-03-06T09:07:34;8.90;89.10
69895;DHT22;57172;52.034;5.090;2024-03-06T09:10:04;9.00;89.00
69895;DHT22;57172;52.034;5.090;2024-03-06T09:12:34;9.10;88.30
69895;DHT22;57172;52.034;5.090;2024-03-06T09:15:02;9.10;87.30
69895;DHT22;57172;52.034;5.090;2024-03-06T09:17:30;9.00;86.80
69895;DHT22;57172;52.034;5.090;2024-03-06T09:19:57;9.00;86.60
69895;DHT22;57172;52.034;5.090;2024-03-06T09:22:41;8.90;85.80
69895;DHT22;57172;52.034;5.090;2024-03-06T09:25:10;8.70;86.00
69895;DHT22;57172;52.034;5.090;2024-03-06T09:27:41;8.60;86.50
69895;DHT22;57172;52.034;5.090;2024-03-06T09:30:09;8.70;87.60
69895;DHT22;57172;52.034;5.090;2024-03-06T09:32:37;8.80;87.50
69895;DHT22;57172;52.034;5.090;2024-03-06T09:35:06;8.90;87.50
69895;DHT22;57172;52.034;5.090;2024-03-06T09:37:33;8.90;86.90
69895;DHT22;57172;52.034;5.090;2024-03-06T09:39:59;9.00;86.90
69895;DHT22;57172;52.034;5.090;2024-03-06T09:42:26;9.10;87.60
69895;DHT22;57172;52.034;5.090;2024-03-06T09:44:53;9.30;86.90
69895;DHT22;57172;52.034;5.090;2024-03-06T09:47:22;9.30;86.40
69895;DHT22;57172;52.034;5.090;2024-03-06T09:49:53;9.40;86.50
69895;DHT22;57172;52.034;5.090;2024-03-06T09:52:23;9.40;86.50
69895;DHT22;57172;52.034;5.090;2024-03-06T09:54:54;9.50;85.70
69895;DHT22;57172;52.034;5.090;2024-03-06T09:57:21;9.50;85.70
69895;DHT22;57172;52.034;5.090;2024-03-06T09:59:48;9.50;85.80
69895;DHT22;57172;52.034;5.090;2024-03-06T10:02:30;9.60;85.60
69895;DHT22;57172;52.034;5.090;2024-03-06T10:04:57;9.60;85.50
69895;DHT22;57172;52.034;5.090;2024-03-06T10:07:24;9.70;85.70
69895;DHT22;57172;52.034;5.090;2024-03-06T10:09:54;9.80;85.90
69895;DHT22;57172;52.034;5.090;2024-03-06T10:12:21;9.90;85.70
69895;DHT22;57172;52.034;5.090;2024-03-06T10:14:49;9.90;85.80
69895;DHT22;57172;52.034;5.090;2024-03-06T10:17:21;10.00;85.80
69895;DHT22;57172;52.034;5.090;2024-03-06T10:19:53;10.10;85.60
69895;DHT22;57172;52.034;5.090;2024-03-06T10:22:20;10.10;84.80
69895;DHT22;57172;52.034;5.090;2024-03-06T10:24:55;10.20;85.70
69895;DHT22;57172;52.034;5.090;2024-03-06T10:27:23;10.30;85.80
69895;DHT22;57172;52.034;5.090;2024-03-06T10:30:03;10.40;86.10
69895;DHT22;57172;52.034;5.090;2024-03-06T10:32:32;10.50;85.90
69895;DHT22;57172;52.034;5.090;2024-03-06T10:34:59;10.70;85.40
69895;DHT22;57172;52.034;5.090;2024-03-06T10:37:27;10.80;85.00
69895;DHT22;57172;52.034;5.090;2024-03-06T10:39:57;10.90;84.50
69895;DHT22;57172;52.034;5.090;2024-03-06T10:42:27;10.90;84.30
69895;DHT22;57172;52.034;5.090;2024-03-06T10:44:55;11.00;83.40
69895;DHT22;57172;52.034;5.090;2024-03-06T10:47:26;11.00;83.30
69895;DHT22;57172;52.034;5.090;2024-03-06T10:49:55;11.00;83.40
69895;DHT22;57172;52.034;5.090;2024-03-06T10:52:27;11.00;83.20
69895;DHT22;57172;52.034;5.090;2024-03-06T10:54:55;11.00;82.50
69895;DHT22;57172;52.034;5.090;2024-03-06T10:57:26;11.00;82.50
69895;DHT22;57172;52.034;5.090;2024-03-06T10:59:53;11.00;82.70
69895;DHT22;57172;52.034;5.090;2024-03-06T11:02:22;11.10;83.30
69895;DHT22;57172;52.034;5.090;2024-03-06T11:04:51;11.20;82.90
69895;DHT22;57172;52.034;5.090;2024-03-06T11:07:18;11.30;82.70
69895;DHT22;57172;52.034;5.090;2024-03-06T11:09:45;11.40;82.70
69895;DHT22;57172;52.034;5.090;2024-03-06T11:12:38;11.60;83.20
69895;DHT22;57172;52.034;5.090;2024-03-06T11:15:15;11.90;83.80
69895;DHT22;57172;52.034;5.090;2024-03-06T11:17:43;12.20;82.20
69895;DHT22;57172;52.034;5.090;2024-03-06T11:20:17;12.40;81.50
69895;DHT22;57172;52.034;5.090;2024-03-06T11:28:42;13.30;84.00
69895;DHT22;57172;52.034;5.090;2024-03-06T11:31:19;13.70;82.30
69895;DHT22;57172;52.034;5.090;2024-03-06T11:33:47;13.80;79.90
69895;DHT22;57172;52.034;5.090;2024-03-06T11:36:22;14.00;79.20
69895;DHT22;57172;52.034;5.090;2024-03-06T11:38:59;14.00;78.20
69895;DHT22;57172;52.034;5.090;2024-03-06T11:41:31;14.10;78.30
69895;DHT22;57172;52.034;5.090;2024-03-06T11:44:01;14.30;78.80
69895;DHT22;57172;52.034;5.090;2024-03-06T11:46:46;14.50;78.60
69895;DHT22;57172;52.034;5.090;2024-03-06T11:49:23;15.00;78.80
69895;DHT22;57172;52.034;5.090;2024-03-06T11:51:53;15.70;76.20
69895;DHT22;57172;52.034;5.090;2024-03-06T11:54:20;16.50;76.00
69895;DHT22;57172;52.034;5.090;2024-03-06T11:56:54;17.30;73.90
69895;DHT22;57172;52.034;5.090;2024-03-06T11:59:25;18.00;70.50
69895;DHT22;57172;52.034;5.090;2024-03-06T12:01:57;18.40;71.10
69895;DHT22;57172;52.034;5.090;2024-03-06T12:04:24;18.90;69.60
69895;DHT22;57172;52.034;5.090;2024-03-06T12:06:51;19.30;66.50
69895;DHT22;57172;52.034;5.090;2024-03-06T12:09:18;19.80;65.00
69895;DHT22;57172;52.034;5.090;2024-03-06T12:11:47;20.60;64.50
69895;DHT22;57172;52.034;5.090;2024-03-06T12:14:18;21.50;62.70
69895;DHT22;57172;52.034;5.090;2024-03-06T12:17:01;22.10;60.00
69895;DHT22;57172;52.034;5.090;2024-03-06T12:19:32;22.80;56.30
69895;DHT22;57172;52.034;5.090;2024-03-06T12:22:00;23.40;53.90
69895;DHT22;57172;52.034;5.090;2024-03-06T12:24:31;23.90;52.50
69895;DHT22;57172;52.034;5.090;2024-03-06T12:27:03;24.20;49.90
69895;DHT22;57172;52.034;5.090;2024-03-06T12:29:32;24.40;47.90
69895;DHT22;57172;52.034;5.090;2024-03-06T12:32:00;24.50;49.50
69895;DHT22;57172;52.034;5.090;2024-03-06T12:34:28;24.80;49.00
69895;DHT22;57172;52.034;5.090;2024-03-06T12:37:07;25.20;47.20
69895;DHT22;57172;52.034;5.090;2024-03-06T12:39:34;25.50;45.60
69895;DHT22;57172;52.034;5.090;2024-03-06T12:42:04;25.70;46.10
69895;DHT22;57172;52.034;5.090;2024-03-06T12:44:31;25.90;45.00
69895;DHT22;57172;52.034;5.090;2024-03-06T12:46:59;26.20;44.70
69895;DHT22;57172;52.034;5.090;2024-03-06T12:49:27;26.50;42.70
69895;DHT22;57172;52.034;5.090;2024-03-06T12:51:54;26.50;42.10
69895;DHT22;57172;52.034;5.090;2024-03-06T12:54:21;26.30;43.20
69895;DHT22;57172;52.034;5.090;2024-03-06T12:56:48;26.40;42.90
69895;DHT22;57172;52.034;5.090;2024-03-06T12:59:15;26.80;41.80
69895;DHT22;57172;52.034;5.090;2024-03-06T13:01:41;27.10;41.60
69895;DHT22;57172;52.034;5.090;2024-03-06T13:04:08;27.50;41.20
69895;DHT22;57172;52.034;5.090;2024-03-06T13:06:39;27.50;41.00
69895;DHT22;57172;52.034;5.090;2024-03-06T13:09:09;27.60;40.60
69895;DHT22;57172;52.034;5.090;2024-03-06T13:11:36;28.10;39.90
69895;DHT22;57172;52.034;5.090;2024-03-06T13:14:03;28.40;38.00
69895;DHT22;57172;52.034;5.090;2024-03-06T13:16:30;28.50;37.90
69895;DHT22;57172;52.034;5.090;2024-03-06T13:18:57;28.60;38.10
69895;DHT22;57172;52.034;5.090;2024-03-06T13:21:26;28.50;37.70
69895;DHT22;57172;52.034;5.090;2024-03-06T13:23:53;28.50;37.50
69895;DHT22;57172;52.034;5.090;2024-03-06T13:26:20;28.60;36.90
69895;DHT22;57172;52.034;5.090;2024-03-06T13:28:47;28.70;36.70
69895;DHT22;57172;52.034;5.090;2024-03-06T13:31:14;28.90;36.10
69895;DHT22;57172;52.034;5.090;2024-03-06T13:33:41;29.00;34.70
69895;DHT22;57172;52.034;5.090;2024-03-06T13:36:08;28.90;34.90
69895;DHT22;57172;52.034;5.090;2024-03-06T13:38:35;28.80;34.90
69895;DHT22;57172;52.034;5.090;2024-03-06T13:41:02;28.80;35.10
69895;DHT22;57172;52.034;5.090;2024-03-06T13:43:29;28.60;35.20
69895;DHT22;57172;52.034;5.090;2024-03-06T13:45:58;28.70;34.70
69895;DHT22;57172;52.034;5.090;2024-03-06T13:48:25;28.60;35.10
69895;DHT22;57172;52.034;5.090;2024-03-06T13:50:52;28.40;34.80
69895;DHT22;57172;52.034;5.090;2024-03-06T13:53:19;28.30;34.90
69895;DHT22;57172;52.034;5.090;2024-03-06T13:55:46;28.30;35.60
69895;DHT22;57172;52.034;5.090;2024-03-06T13:58:13;28.40;35.40
69895;DHT22;57172;52.034;5.090;2024-03-06T14:00:40;28.40;34.70
69895;DHT22;57172;52.034;5.090;2024-03-06T14:03:07;28.70;34.30
69895;DHT22;57172;52.034;5.090;2024-03-06T14:05:33;28.70;34.20
69895;DHT22;57172;52.034;5.090;2024-03-06T14:08:00;28.70;34.20
69895;DHT22;57172;52.034;5.090;2024-03-06T14:10:29;28.70;33.40
69895;DHT22;57172;52.034;5.090;2024-03-06T14:13:00;28.60;33.70
69895;DHT22;57172;52.034;5.090;2024-03-06T14:15:27;28.40;34.40
69895;DHT22;57172;52.034;5.090;2024-03-06T14:17:54;28.10;33.90
69895;DHT22;57172;52.034;5.090;2024-03-06T14:20:22;28.00;34.10
69895;DHT22;57172;52.034;5.090;2024-03-06T14:22:50;28.10;34.30
69895;DHT22;57172;52.034;5.090;2024-03-06T14:25:17;28.20;33.60
69895;DHT22;57172;52.034;5.090;2024-03-06T14:27:46;28.10;33.80
69895;DHT22;57172;52.034;5.090;2024-03-06T14:30:14;27.90;33.40
69895;DHT22;57172;52.034;5.090;2024-03-06T14:32:42;27.80;33.90
69895;DHT22;57172;52.034;5.090;2024-03-06T14:35:09;27.80;33.60
69895;DHT22;57172;52.034;5.090;2024-03-06T14:37:36;27.80;34.30
69895;DHT22;57172;52.034;5.090;2024-03-06T14:40:06;27.90;34.10
69895;DHT22;57172;52.034;5.090;2024-03-06T14:42:35;28.10;33.40
69895;DHT22;57172;52.034;5.090;2024-03-06T14:45:02;28.30;33.40
69895;DHT22;57172;52.034;5.090;2024-03-06T14:47:32;28.30;32.50
69895;DHT22;57172;52.034;5.090;2024-03-06T14:50:00;27.90;32.40
69895;DHT22;57172;52.034;5.090;2024-03-06T14:52:27;27.70;32.60
69895;DHT22;57172;52.034;5.090;2024-03-06T14:54:54;27.40;32.30
69895;DHT22;57172;52.034;5.090;2024-03-06T14:57:21;27.00;32.90
69895;DHT22;57172;52.034;5.090;2024-03-06T14:59:50;26.80;33.10
69895;DHT22;57172;52.034;5.090;2024-03-06T15:02:17;26.60;33.60
69895;DHT22;57172;52.034;5.090;2024-03-06T15:04:44;26.50;33.80
69895;DHT22;57172;52.034;5.090;2024-03-06T15:07:11;26.40;34.00
69895;DHT22;57172;52.034;5.090;2024-03-06T15:09:37;26.30;34.20
69895;DHT22;57172;52.034;5.090;2024-03-06T15:12:05;26.30;34.60
69895;DHT22;57172;52.034;5.090;2024-03-06T15:14:32;26.30;34.60
69895;DHT22;57172;52.034;5.090;2024-03-06T15:17:11;26.40;34.40
69895;DHT22;57172;52.034;5.090;2024-03-06T15:19:38;26.40;34.40
69895;DHT22;57172;52.034;5.090;2024-03-06T15:22:06;26.20;34.30
69895;DHT22;57172;52.034;5.090;2024-03-06T15:24:34;25.70;34.20
69895;DHT22;57172;52.034;5.090;2024-03-06T15:27:01;25.30;34.90
69895;DHT22;57172;52.034;5.090;2024-03-06T15:29:28;25.10;35.10
69895;DHT22;57172;52.034;5.090;2024-03-06T15:31:55;25.10;34.60
69895;DHT22;57172;52.034;5.090;2024-03-06T15:34:22;25.00;34.30
69895;DHT22;57172;52.034;5.090;2024-03-06T15:36:49;25.00;34.20
69895;DHT22;57172;52.034;5.090;2024-03-06T15:39:15;24.80;33.90
69895;DHT22;57172;52.034;5.090;2024-03-06T15:41:42;24.60;34.10
69895;DHT22;57172;52.034;5.090;2024-03-06T15:44:09;24.20;34.80
69895;DHT22;57172;52.034;5.090;2024-03-06T15:46:37;23.90;35.20
69895;DHT22;57172;52.034;5.090;2024-03-06T15:49:18;23.80;35.50
69895;DHT22;57172;52.034;5.090;2024-03-06T15:51:46;23.90;35.80
69895;DHT22;57172;52.034;5.090;2024-03-06T15:54:13;24.10;35.20
69895;DHT22;57172;52.034;5.090;2024-03-06T15:56:40;24.10;35.00